createdAt,value
2018-01-08T00:00:07.817Z,99.99
2018-01-08T00:01:16.638Z,99.99
2018-01-08T00:02:25.458Z,99.99
2018-01-08T00:03:34.280Z,99.99
2018-01-08T00:04:43.350Z,99.99
2018-01-08T00:05:52.175Z,99.99
2018-01-08T00:07:00.997Z,99.99
2018-01-08T00:08:10.091Z,99.99
2018-01-08T00:09:18.916Z,99.99
2018-01-08T00:10:28.038Z,99.99
2018-01-08T00:11:36.858Z,99.99
2018-01-08T00:12:45.683Z,99.99
2018-01-08T00:13:54.785Z,99.99
2018-01-08T00:15:03.611Z,99.99
2018-01-08T00:16:12.483Z,99.99
2018-01-08T00:17:21.303Z,99.99
2018-01-08T00:18:30.126Z,99.99
2018-01-08T00:19:38.950Z,99.99
2018-01-08T00:20:47.773Z,99.99
2018-01-08T00:21:56.598Z,99.99
2018-01-08T00:23:05.416Z,99.99
2018-01-08T00:24:14.237Z,99.99
2018-01-08T00:25:23.060Z,99.99
2018-01-08T00:26:31.880Z,99.99
2018-01-08T00:27:40.803Z,99.99
2018-01-08T00:28:49.625Z,99.99
2018-01-08T00:29:58.447Z,99.99
2018-01-08T00:31:07.318Z,99.99
2018-01-08T00:32:16.143Z,99.99
2018-01-08T00:33:25.165Z,99.99
2018-01-08T00:34:33.986Z,99.99
2018-01-08T00:35:42.809Z,99.99
2018-01-08T00:36:51.631Z,99.99
2018-01-08T00:38:00.454Z,99.99
2018-01-08T00:39:09.583Z,99.99
2018-01-08T00:40:18.404Z,99.99
2018-01-08T00:41:27.227Z,99.99
2018-01-08T00:42:36.329Z,99.99
2018-01-08T00:43:45.151Z,99.99
2018-01-08T00:44:54.021Z,99.99
2018-01-08T00:46:02.841Z,99.99
2018-01-08T00:47:11.935Z,99.99
2018-01-08T00:48:20.758Z,99.99
2018-01-08T00:49:29.584Z,99.99
2018-01-08T00:50:38.556Z,99.99
2018-01-08T00:51:47.377Z,99.99
2018-01-08T00:52:56.198Z,99.99
2018-01-08T00:54:05.020Z,99.99
2018-01-08T00:55:13.840Z,99.99
2018-01-08T00:56:22.760Z,99.99
2018-01-08T00:57:31.585Z,99.99
2018-01-08T00:58:40.407Z,99.99
2018-01-08T00:59:49.233Z,99.99
2018-01-08T01:00:58.053Z,99.99
2018-01-08T01:02:07.455Z,99.99
2018-01-08T01:03:16.276Z,99.99
2018-01-08T01:04:25.097Z,99.99
2018-01-08T01:05:33.918Z,99.99
2018-01-08T01:06:42.738Z,99.99
2018-01-08T01:07:51.719Z,99.99
2018-01-08T01:09:00.537Z,99.99
2018-01-08T01:10:09.360Z,99.99
2018-01-08T01:11:18.182Z,99.99
2018-01-08T01:12:27.002Z,99.99
2018-01-08T01:13:35.974Z,99.99
2018-01-08T01:14:44.797Z,99.99
2018-01-08T01:15:53.618Z,99.99
2018-01-08T01:17:02.442Z,99.99
2018-01-08T01:18:11.265Z,99.99
2018-01-08T01:19:20.136Z,99.99
2018-01-08T01:20:28.956Z,99.65
2018-01-08T01:21:37.776Z,99.75
2018-01-08T01:22:46.598Z,99.99
2018-01-08T01:23:55.417Z,99.99
2018-01-08T01:25:04.541Z,99.99
2018-01-08T01:26:13.641Z,99.99
2018-01-08T01:27:22.460Z,99.99
2018-01-08T01:28:31.286Z,99.99
2018-01-08T01:29:40.108Z,99.65
2018-01-08T01:30:48.928Z,99.99
2018-01-08T01:31:57.749Z,99.99
2018-01-08T01:33:06.577Z,99.88
2018-01-08T01:34:15.392Z,99.99
2018-01-08T01:35:24.209Z,99.99
2018-01-08T01:36:33.181Z,99.99
2018-01-08T01:37:42.002Z,99.99
2018-01-08T01:38:50.824Z,99.99
2018-01-08T01:39:59.647Z,99.99
2018-01-08T01:41:08.467Z,99.99
2018-01-08T01:42:17.389Z,99.99
2018-01-08T01:43:26.212Z,99.75
2018-01-08T01:44:35.035Z,99.88
2018-01-08T01:45:43.855Z,99.99
2018-01-08T01:46:52.674Z,99.99
2018-01-08T01:48:01.496Z,99.99
2018-01-08T01:49:10.318Z,99.99
2018-01-08T01:50:19.138Z,99.99
2018-01-08T01:51:27.958Z,99.99
2018-01-08T01:52:36.777Z,99.99
2018-01-08T01:53:45.800Z,99.99
2018-01-08T01:54:54.624Z,99.99
2018-01-08T01:56:03.444Z,99.99
2018-01-08T01:57:12.264Z,99.99
2018-01-08T01:58:21.087Z,99.99
2018-01-08T01:59:30.362Z,99.99
2018-01-08T02:00:39.181Z,99.99
2018-01-08T02:01:48.005Z,99.99
2018-01-08T02:02:56.830Z,99.99
2018-01-08T02:04:05.646Z,99.99
2018-01-08T02:05:14.999Z,99.99
2018-01-08T02:06:24.094Z,99.99
2018-01-08T02:07:32.917Z,99.99
2018-01-08T02:08:41.740Z,99.99
2018-01-08T02:09:50.559Z,99.99
2018-01-08T02:10:59.530Z,99.99
2018-01-08T02:12:08.353Z,99.99
2018-01-08T02:13:17.173Z,99.99
2018-01-08T02:14:26.269Z,99.99
2018-01-08T02:15:35.091Z,99.99
2018-01-08T02:16:44.014Z,99.99
2018-01-08T02:17:52.836Z,99.99
2018-01-08T02:19:01.656Z,99.99
2018-01-08T02:20:10.475Z,99.99
2018-01-08T02:21:19.297Z,99.99
2018-01-08T02:22:28.118Z,99.99
2018-01-08T02:23:36.938Z,99.99
2018-01-08T02:24:45.767Z,99.99
2018-01-08T02:25:55.137Z,99.99
2018-01-08T02:27:04.230Z,99.99
2018-01-08T02:28:13.352Z,99.99
2018-01-08T02:29:22.181Z,99.99
2018-01-08T02:30:31.002Z,99.99
2018-01-08T02:31:39.821Z,99.99
2018-01-08T02:32:48.642Z,99.99
2018-01-08T02:33:57.517Z,99.99
2018-01-08T02:35:06.341Z,99.99
2018-01-08T02:36:15.159Z,99.99
2018-01-08T02:37:23.982Z,99.99
2018-01-08T02:38:32.803Z,99.99
2018-01-08T02:39:41.775Z,99.99
2018-01-08T02:40:50.595Z,99.99
2018-01-08T02:41:59.693Z,99.99
2018-01-08T02:43:08.517Z,99.99
2018-01-08T02:44:17.338Z,99.99
2018-01-08T02:45:26.558Z,99.99
2018-01-08T02:46:35.380Z,99.99
2018-01-08T02:47:44.201Z,99.99
2018-01-08T02:48:53.024Z,99.99
2018-01-08T02:50:01.851Z,99.99
2018-01-08T02:51:10.996Z,99.99
2018-01-08T02:52:19.823Z,99.99
2018-01-08T02:53:28.922Z,99.99
2018-01-08T02:54:37.743Z,99.99
2018-01-08T02:55:46.567Z,99.99
2018-01-08T02:56:55.386Z,99.99
2018-01-08T02:58:04.212Z,99.99
2018-01-08T02:59:13.031Z,99.99
2018-01-08T03:00:21.854Z,99.99
2018-01-08T03:01:30.674Z,99.99
2018-01-08T03:02:39.647Z,99.99
2018-01-08T03:03:48.468Z,99.99
2018-01-08T03:04:57.304Z,99.99
2018-01-08T03:06:06.113Z,99.99
2018-01-08T03:07:14.935Z,99.99
2018-01-08T03:08:23.904Z,99.99
2018-01-08T03:09:32.725Z,99.99
2018-01-08T03:10:41.548Z,99.99
2018-01-08T03:11:50.368Z,99.99
2018-01-08T03:12:59.191Z,99.99
2018-01-08T03:14:08.119Z,99.99
2018-01-08T03:15:16.935Z,99.99
2018-01-08T03:16:26.087Z,99.99
2018-01-08T03:17:34.907Z,99.99
2018-01-08T03:18:43.729Z,99.99
2018-01-08T03:19:52.649Z,99.99
2018-01-08T03:21:01.745Z,99.99
2018-01-08T03:22:10.570Z,99.99
2018-01-08T03:23:19.670Z,99.99
2018-01-08T03:24:28.496Z,99.99
2018-01-08T03:25:37.319Z,99.99
2018-01-08T03:26:46.141Z,99.99
2018-01-08T03:27:55.240Z,99.99
2018-01-08T03:29:04.338Z,99.99
2018-01-08T03:30:13.164Z,99.99
2018-01-08T03:31:22.459Z,99.99
2018-01-08T03:32:31.281Z,99.99
2018-01-08T03:33:40.102Z,99.99
2018-01-08T03:34:48.924Z,99.99
2018-01-08T03:35:57.745Z,99.99
2018-01-08T03:37:06.866Z,99.99
2018-01-08T03:38:15.688Z,99.99
2018-01-08T03:39:24.507Z,99.99
2018-01-08T03:40:33.327Z,99.99
2018-01-08T03:41:42.146Z,99.99
2018-01-08T03:42:51.014Z,99.99
2018-01-08T03:43:59.833Z,99.99
2018-01-08T03:45:08.654Z,99.99
2018-01-08T03:46:17.479Z,99.99
2018-01-08T03:47:26.296Z,99.99
2018-01-08T03:48:35.416Z,99.99
2018-01-08T03:49:44.510Z,99.99
2018-01-08T03:50:53.332Z,99.99
2018-01-08T03:52:02.427Z,99.99
2018-01-08T03:53:11.250Z,99.99
2018-01-08T03:54:20.070Z,99.99
2018-01-08T03:55:28.891Z,99.99
2018-01-08T03:56:37.716Z,99.99
2018-01-08T03:57:46.536Z,99.99
2018-01-08T03:58:55.357Z,99.99
2018-01-08T04:00:04.706Z,99.99
2018-01-08T04:01:13.528Z,99.99
2018-01-08T04:02:22.675Z,99.99
2018-01-08T04:03:31.496Z,99.99
2018-01-08T04:04:40.317Z,99.99
2018-01-08T04:05:49.139Z,99.99
2018-01-08T04:06:57.960Z,99.99
2018-01-08T04:08:07.057Z,99.99
2018-01-08T04:09:16.160Z,99.99
2018-01-08T04:10:24.983Z,99.99
2018-01-08T04:11:33.805Z,99.99
2018-01-08T04:12:42.625Z,99.99
2018-01-08T04:13:51.722Z,99.99
2018-01-08T04:15:00.547Z,99.99
2018-01-08T04:16:09.367Z,99.99
2018-01-08T04:17:18.241Z,99.99
2018-01-08T04:18:27.066Z,99.99
2018-01-08T04:19:36.170Z,99.99
2018-01-08T04:20:44.993Z,99.99
2018-01-08T04:21:53.871Z,99.99
2018-01-08T04:23:02.834Z,99.99
2018-01-08T04:24:11.656Z,99.99
2018-01-08T04:25:20.482Z,99.99
2018-01-08T04:26:29.301Z,99.99
2018-01-08T04:27:38.121Z,99.99
2018-01-08T04:28:47.367Z,99.99
2018-01-08T04:29:56.184Z,99.99
2018-01-08T04:31:05.281Z,99.99
2018-01-08T04:32:14.103Z,99.99
2018-01-08T04:33:22.923Z,99.99
2018-01-08T04:34:31.744Z,99.99
2018-01-08T04:35:40.842Z,99.99
2018-01-08T04:36:49.669Z,99.99
2018-01-08T04:37:58.758Z,99.99
2018-01-08T04:39:07.579Z,99.99
2018-01-08T04:40:16.402Z,99.99
2018-01-08T04:41:25.222Z,99.99
2018-01-08T04:42:34.045Z,99.99
2018-01-08T04:43:42.864Z,99.99
2018-01-08T04:44:51.686Z,99.99
2018-01-08T04:46:00.555Z,99.99
2018-01-08T04:47:09.377Z,99.99
2018-01-08T04:48:18.200Z,99.99
2018-01-08T04:49:27.020Z,99.99
2018-01-08T04:50:35.840Z,99.99
2018-01-08T04:51:44.660Z,99.99
2018-01-08T04:52:53.483Z,99.99
2018-01-08T04:54:02.304Z,99.99
2018-01-08T04:55:11.122Z,99.99
2018-01-08T04:56:19.944Z,99.99
2018-01-08T04:57:29.288Z,99.99
2018-01-08T04:58:38.109Z,99.99
2018-01-08T04:59:47.206Z,99.99
2018-01-08T05:00:56.027Z,99.99
2018-01-08T05:02:04.848Z,99.99
2018-01-08T05:03:13.971Z,99.99
2018-01-08T05:04:22.793Z,99.99
2018-01-08T05:05:31.614Z,99.99
2018-01-08T05:06:40.434Z,99.99
2018-01-08T05:07:49.260Z,99.99
2018-01-08T05:08:58.081Z,99.99
2018-01-08T05:10:07.177Z,99.99
2018-01-08T05:11:15.996Z,99.99
2018-01-08T05:12:24.820Z,99.99
2018-01-08T05:13:33.642Z,99.99
2018-01-08T05:14:42.511Z,99.99
2018-01-08T05:15:51.332Z,99.99
2018-01-08T05:17:00.155Z,99.99
2018-01-08T05:18:09.249Z,99.99
2018-01-08T05:19:18.071Z,99.99
2018-01-08T05:20:26.894Z,99.99
2018-01-08T05:21:35.715Z,99.99
2018-01-08T05:22:44.830Z,99.99
2018-01-08T05:23:53.652Z,99.99
2018-01-08T05:25:02.474Z,99.99
2018-01-08T05:26:11.444Z,99.99
2018-01-08T05:27:20.263Z,99.99
2018-01-08T05:28:29.085Z,99.99
2018-01-08T05:29:37.911Z,99.99
2018-01-08T05:30:47.003Z,99.99
2018-01-08T05:31:55.923Z,99.99
2018-01-08T05:33:04.745Z,99.99
2018-01-08T05:34:13.566Z,99.99
2018-01-08T05:35:22.394Z,99.99
2018-01-08T05:36:31.497Z,99.99
2018-01-08T05:37:40.419Z,99.99
2018-01-08T05:38:49.241Z,99.99
2018-01-08T05:39:58.339Z,99.99
2018-01-08T05:41:07.159Z,99.99
2018-01-08T05:42:15.980Z,99.99
2018-01-08T05:43:25.073Z,99.99
2018-01-08T05:44:33.895Z,99.99
2018-01-08T05:45:42.713Z,99.99
2018-01-08T05:46:51.576Z,99.99
2018-01-08T05:48:00.359Z,99.99
2018-01-08T05:49:09.325Z,99.99
2018-01-08T05:50:18.421Z,99.99
2018-01-08T05:51:27.246Z,99.99
2018-01-08T05:52:36.064Z,99.99
2018-01-08T05:53:44.887Z,99.99
2018-01-08T05:54:53.808Z,99.99
2018-01-08T05:56:02.631Z,99.99
2018-01-08T05:57:11.454Z,99.99
2018-01-08T05:58:20.277Z,99.99
2018-01-08T05:59:29.097Z,99.99
2018-01-08T06:00:38.016Z,99.99
2018-01-08T06:01:46.846Z,99.99
2018-01-08T06:02:55.671Z,99.99
2018-01-08T06:04:04.494Z,99.99
2018-01-08T06:05:13.314Z,99.99
2018-01-08T06:06:22.136Z,99.99
2018-01-08T06:07:30.956Z,99.99
2018-01-08T06:08:39.778Z,99.99
2018-01-08T06:09:48.600Z,99.99
2018-01-08T06:10:57.422Z,99.99
2018-01-08T06:12:06.293Z,99.99
2018-01-08T06:13:15.114Z,99.99
2018-01-08T06:14:23.937Z,99.99
2018-01-08T06:15:33.034Z,99.99
2018-01-08T06:16:42.140Z,99.99
2018-01-08T06:17:50.953Z,99.99
2018-01-08T06:19:00.056Z,99.99
2018-01-08T06:20:08.879Z,99.99
2018-01-08T06:21:17.701Z,99.99
2018-01-08T06:22:26.525Z,99.99
2018-01-08T06:23:35.447Z,99.99
2018-01-08T06:24:44.545Z,99.99
2018-01-08T06:25:53.367Z,99.99
2018-01-08T06:27:02.469Z,99.99
2018-01-08T06:28:11.291Z,99.99
2018-01-08T06:29:20.414Z,99.99
2018-01-08T06:30:29.236Z,99.99
2018-01-08T06:31:38.055Z,99.99
2018-01-08T06:32:47.700Z,99.99
2018-01-08T06:33:56.555Z,99.99
2018-01-08T06:35:05.664Z,99.99
2018-01-08T06:36:14.478Z,99.99
2018-01-08T06:37:23.301Z,99.99
2018-01-08T06:38:32.121Z,99.99
2018-01-08T06:39:40.944Z,99.99
2018-01-08T06:40:50.042Z,99.99
2018-01-08T06:41:58.864Z,99.99
2018-01-08T06:43:07.693Z,99.99
2018-01-08T06:44:16.787Z,99.99
2018-01-08T06:45:25.609Z,99.99
2018-01-08T06:46:34.432Z,99.99
2018-01-08T06:47:43.254Z,99.99
2018-01-08T06:48:52.079Z,99.99
2018-01-08T06:50:00.902Z,99.99
2018-01-08T06:51:09.727Z,99.99
2018-01-08T06:52:18.545Z,99.99
2018-01-08T06:53:27.648Z,99.99
2018-01-08T06:54:36.469Z,99.99
2018-01-08T06:55:45.291Z,99.99
2018-01-08T06:56:54.112Z,99.99
2018-01-08T06:58:02.936Z,99.99
2018-01-08T06:59:11.758Z,99.99
2018-01-08T07:00:20.632Z,99.99
2018-01-08T07:01:29.786Z,99.99
2018-01-08T07:02:38.588Z,99.99
2018-01-08T07:03:47.463Z,99.99
2018-01-08T07:04:56.285Z,99.99
2018-01-08T07:06:05.404Z,99.99
2018-01-08T07:07:14.226Z,99.99
2018-01-08T07:08:23.049Z,99.99
2018-01-08T07:09:31.873Z,99.99
2018-01-08T07:10:40.693Z,99.99
2018-01-08T07:11:49.614Z,99.99
2018-01-08T07:12:58.709Z,99.99
2018-01-08T07:14:07.533Z,99.99
2018-01-08T07:15:16.637Z,99.99
2018-01-08T07:16:25.454Z,99.99
2018-01-08T07:17:34.324Z,99.99
2018-01-08T07:18:43.148Z,99.99
2018-01-08T07:19:52.244Z,99.99
2018-01-08T07:21:01.067Z,99.99
2018-01-08T07:22:09.887Z,99.99
2018-01-08T07:23:18.809Z,99.99
2018-01-08T07:24:27.629Z,99.99
2018-01-08T07:25:36.455Z,99.99
2018-01-08T07:26:45.285Z,99.99
2018-01-08T07:27:54.095Z,99.99
2018-01-08T07:29:03.068Z,99.99
2018-01-08T07:30:12.322Z,99.99
2018-01-08T07:31:21.145Z,99.99
2018-01-08T07:32:29.967Z,99.99
2018-01-08T07:33:38.792Z,99.99
2018-01-08T07:34:47.766Z,99.99
2018-01-08T07:35:56.589Z,99.99
2018-01-08T07:37:05.414Z,99.99
2018-01-08T07:38:14.507Z,99.99
2018-01-08T07:39:23.327Z,99.99
2018-01-08T07:40:32.448Z,99.99
2018-01-08T07:41:41.272Z,99.99
2018-01-08T07:42:50.095Z,99.99
2018-01-08T07:43:59.191Z,99.99
2018-01-08T07:45:08.017Z,99.99
2018-01-08T07:46:16.888Z,99.99
2018-01-08T07:47:25.984Z,99.99
2018-01-08T07:48:34.807Z,99.99
2018-01-08T07:49:43.630Z,99.99
2018-01-08T07:50:52.727Z,99.99
2018-01-08T07:52:01.553Z,99.99
2018-01-08T07:53:10.649Z,99.99
2018-01-08T07:54:19.473Z,99.99
2018-01-08T07:55:28.296Z,99.99
2018-01-08T07:56:37.120Z,99.99
2018-01-08T07:57:46.043Z,99.99
2018-01-08T07:58:54.989Z,99.99
2018-01-08T08:00:03.868Z,99.99
2018-01-08T08:01:13.319Z,99.99
2018-01-08T08:02:22.369Z,99.99
2018-01-08T08:03:31.342Z,99.99
2018-01-08T08:04:40.162Z,99.99
2018-01-08T08:05:48.983Z,99.99
2018-01-08T08:06:57.808Z,99.99
2018-01-08T08:08:06.633Z,99.99
2018-01-08T08:09:15.838Z,99.99
2018-01-08T08:10:24.935Z,99.99
2018-01-08T08:11:33.759Z,99.99
2018-01-08T08:12:42.580Z,99.99
2018-01-08T08:13:51.404Z,99.99
2018-01-08T08:15:00.229Z,99.99
2018-01-08T08:16:09.326Z,99.99
2018-01-08T08:17:18.148Z,99.99
2018-01-08T08:18:26.971Z,99.99
2018-01-08T08:19:35.792Z,99.99
2018-01-08T08:20:44.613Z,99.99
2018-01-08T08:21:53.712Z,99.99
2018-01-08T08:23:02.537Z,99.99
2018-01-08T08:24:11.355Z,99.99
2018-01-08T08:25:20.184Z,99.99
2018-01-08T08:26:29.157Z,99.99
2018-01-08T08:27:38.454Z,99.99
2018-01-08T08:28:47.285Z,99.99
2018-01-08T08:29:56.380Z,99.99
2018-01-08T08:31:05.202Z,99.99
2018-01-08T08:32:14.174Z,99.99
2018-01-08T08:33:22.997Z,99.99
2018-01-08T08:34:32.099Z,99.99
2018-01-08T08:35:41.192Z,99.99
2018-01-08T08:36:50.020Z,99.99
2018-01-08T08:37:59.116Z,99.99
2018-01-08T08:39:07.940Z,99.99
2018-01-08T08:40:16.763Z,99.99
2018-01-08T08:41:25.588Z,99.99
2018-01-08T08:42:34.410Z,99.99
2018-01-08T08:43:43.666Z,99.99
2018-01-08T08:44:52.491Z,99.99
2018-01-08T08:46:01.313Z,99.99
2018-01-08T08:47:10.136Z,99.99
2018-01-08T08:48:18.958Z,99.99
2018-01-08T08:49:27.931Z,99.99
2018-01-08T08:50:36.754Z,99.99
2018-01-08T08:51:45.578Z,99.99
2018-01-08T08:52:54.402Z,99.99
2018-01-08T08:54:03.235Z,99.99
2018-01-08T08:55:12.158Z,99.99
2018-01-08T08:56:20.985Z,99.99
2018-01-08T08:57:29.806Z,99.99
2018-01-08T08:58:38.629Z,99.99
2018-01-08T08:59:47.451Z,99.99
2018-01-08T09:00:56.676Z,99.99
2018-01-08T09:02:05.786Z,99.99
2018-01-08T09:03:14.602Z,99.99
2018-01-08T09:04:23.423Z,99.99
2018-01-08T09:05:32.244Z,99.99
2018-01-08T09:06:41.223Z,99.99
2018-01-08T09:07:50.040Z,99.99
2018-01-08T09:08:58.863Z,99.99
2018-01-08T09:10:07.687Z,99.99
2018-01-08T09:11:16.508Z,99.99
2018-01-08T09:12:25.431Z,99.99
2018-01-08T09:13:34.255Z,99.99
2018-01-08T09:14:43.080Z,99.99
2018-01-08T09:15:51.903Z,99.99
2018-01-08T09:17:00.726Z,99.99
2018-01-08T09:18:09.552Z,99.99
2018-01-08T09:19:18.374Z,99.99
2018-01-08T09:20:27.198Z,99.99
2018-01-08T09:21:36.299Z,99.99
2018-01-08T09:22:45.399Z,99.99
2018-01-08T09:23:54.321Z,99.46
2018-01-08T09:25:03.420Z,99.75
2018-01-08T09:26:12.243Z,99.65
2018-01-08T09:27:21.067Z,99.99
2018-01-08T09:28:29.891Z,99.99
2018-01-08T09:29:38.813Z,99.56
2018-01-08T09:30:47.636Z,99.75
2018-01-08T09:31:56.461Z,99.46
2018-01-08T09:33:05.287Z,99.99
2018-01-08T09:34:14.111Z,99.84
2018-01-08T09:35:23.084Z,98.52
2018-01-08T09:36:31.905Z,99.08
2018-01-08T09:37:40.730Z,99.08
2018-01-08T09:38:49.560Z,98.8
2018-01-08T09:39:58.383Z,99.08
2018-01-08T09:41:07.508Z,99.27
2018-01-08T09:42:16.332Z,98.8
2018-01-08T09:43:25.155Z,99.14
2018-01-08T09:44:33.976Z,98.71
2018-01-08T09:45:42.800Z,99.14
2018-01-08T09:46:51.624Z,98.57
2018-01-08T09:48:00.450Z,97.81
2018-01-08T09:49:09.279Z,97.91
2018-01-08T09:50:18.108Z,97.81
2018-01-08T09:51:26.933Z,98.19
2018-01-08T09:52:35.758Z,98.1
2018-01-08T09:53:44.582Z,98.66
2018-01-08T09:54:53.685Z,99.61
2018-01-08T09:56:02.505Z,99.04
2018-01-08T09:57:11.329Z,98.57
2018-01-08T09:58:20.305Z,98.76
2018-01-08T09:59:29.126Z,99.42
2018-01-08T10:00:38.233Z,99.61
2018-01-08T10:01:47.059Z,98.95
2018-01-08T10:02:56.159Z,99.99
2018-01-08T10:04:05.132Z,99.8
2018-01-08T10:05:13.954Z,98.85
2018-01-08T10:06:22.779Z,98.95
2018-01-08T10:07:31.604Z,98.95
2018-01-08T10:08:40.429Z,98.19
2018-01-08T10:09:49.254Z,98.38
2018-01-08T10:10:58.353Z,98.19
2018-01-08T10:12:07.230Z,99.04
2018-01-08T10:13:16.054Z,98.95
2018-01-08T10:14:24.876Z,99.33
2018-01-08T10:15:34.279Z,99.23
2018-01-08T10:16:43.389Z,99.04
2018-01-08T10:17:52.208Z,98.66
2018-01-08T10:19:01.584Z,98.76
2018-01-08T10:20:10.409Z,99.23
2018-01-08T10:21:19.233Z,99.33
2018-01-08T10:22:28.332Z,98.66
2018-01-08T10:23:37.155Z,98.47
2018-01-08T10:24:46.029Z,96.96
2018-01-08T10:25:54.801Z,96.96
2018-01-08T10:27:03.677Z,96.59
2018-01-08T10:28:12.501Z,95.36
2018-01-08T10:29:21.324Z,95.26
2018-01-08T10:30:30.149Z,94.41
2018-01-08T10:31:38.974Z,94.41
2018-01-08T10:32:47.799Z,94.98
2018-01-08T10:33:56.667Z,94.98
2018-01-08T10:35:05.451Z,94.32
2018-01-08T10:36:14.275Z,94.7
2018-01-08T10:37:23.100Z,95.54
2018-01-08T10:38:32.349Z,95.83
2018-01-08T10:39:41.176Z,95.36
2018-01-08T10:40:50.269Z,94.41
2018-01-08T10:41:59.096Z,94.22
2018-01-08T10:43:07.923Z,94.13
2018-01-08T10:44:16.995Z,94.32
2018-01-08T10:45:25.820Z,94.13
2018-01-08T10:46:34.646Z,94.89
2018-01-08T10:47:44.025Z,94.32
2018-01-08T10:48:52.849Z,92.61
2018-01-08T10:50:02.078Z,93.09
2018-01-08T10:51:10.900Z,92.66
2018-01-08T10:52:19.722Z,92.29
2018-01-08T10:53:28.546Z,92.29
2018-01-08T10:54:37.372Z,91.53
2018-01-08T10:55:46.194Z,91.62
2018-01-08T10:56:55.018Z,92.29
2018-01-08T10:58:03.841Z,91.81
2018-01-08T10:59:12.667Z,92.66
2018-01-08T11:00:21.496Z,91.72
2018-01-08T11:01:30.321Z,93.32
2018-01-08T11:02:39.146Z,92.38
2018-01-08T11:03:47.970Z,92.1
2018-01-08T11:04:56.796Z,93.32
2018-01-08T11:06:05.620Z,92.57
2018-01-08T11:07:14.495Z,92.57
2018-01-08T11:08:23.598Z,92.19
2018-01-08T11:09:32.736Z,92.19
2018-01-08T11:10:41.561Z,91.05
2018-01-08T11:11:50.385Z,91.15
2018-01-08T11:12:59.288Z,91.53
2018-01-08T11:14:08.088Z,92.1
2018-01-08T11:15:16.908Z,91.34
2018-01-08T11:16:25.734Z,91.91
2018-01-08T11:17:34.556Z,91.43
2018-01-08T11:18:43.382Z,90.2
2018-01-08T11:19:52.208Z,88.69
2018-01-08T11:21:01.031Z,88.03
2018-01-08T11:22:09.857Z,88.98
2018-01-08T11:23:18.679Z,89.07
2018-01-08T11:24:27.807Z,89.73
2018-01-08T11:25:36.633Z,89.83
2018-01-08T11:26:45.458Z,89.07
2018-01-08T11:27:54.285Z,88.31
2018-01-08T11:29:03.162Z,88.5
2018-01-08T11:30:12.038Z,89.45
2018-01-08T11:31:20.867Z,89.92
2018-01-08T11:32:29.692Z,88.79
2018-01-08T11:33:38.521Z,88.83
2018-01-08T11:34:47.344Z,88.74
2018-01-08T11:35:56.494Z,87.98
2018-01-08T11:37:05.374Z,87.41
2018-01-08T11:38:14.198Z,87.32
2018-01-08T11:39:23.029Z,86.66
2018-01-08T11:40:31.847Z,86.75
2018-01-08T11:41:40.872Z,85.99
2018-01-08T11:42:49.976Z,85.8
2018-01-08T11:43:58.803Z,87.51
2018-01-08T11:45:07.631Z,86.18
2018-01-08T11:46:16.455Z,86.28
2018-01-08T11:47:25.432Z,86.66
2018-01-08T11:48:34.258Z,86.28
2018-01-08T11:49:43.083Z,84.86
2018-01-08T11:50:52.181Z,83.82
2018-01-08T11:52:01.287Z,83.72
2018-01-08T11:53:10.215Z,84.48
2018-01-08T11:54:19.044Z,83.06
2018-01-08T11:55:27.870Z,82.87
2018-01-08T11:56:36.696Z,82.02
2018-01-08T11:57:45.797Z,81.26
2018-01-08T11:58:54.673Z,81.07
2018-01-08T12:00:03.775Z,81.74
2018-01-08T12:01:12.602Z,81.83
2018-01-08T12:02:21.432Z,80.79
2018-01-08T12:03:30.268Z,80.41
2018-01-08T12:04:39.514Z,80.88
2018-01-08T12:05:48.344Z,80.6
2018-01-08T12:06:57.167Z,80.22
2018-01-08T12:08:06.272Z,79.94
2018-01-08T12:09:15.101Z,79.85
2018-01-08T12:10:24.077Z,80.79
2018-01-08T12:11:32.904Z,80.04
2018-01-08T12:12:41.730Z,80.41
2018-01-08T12:13:50.559Z,81.26
2018-01-08T12:14:59.659Z,79.85
2018-01-08T12:16:08.537Z,79.18
2018-01-08T12:17:17.364Z,77.95
2018-01-08T12:18:26.191Z,78.23
2018-01-08T12:19:35.018Z,78.52
2018-01-08T12:20:43.844Z,78.52
2018-01-08T12:21:52.671Z,78.52
2018-01-08T12:23:01.497Z,77.86
2018-01-08T12:24:10.323Z,78.8
2018-01-08T12:25:19.148Z,77.39
2018-01-08T12:26:27.974Z,77.58
2018-01-08T12:27:37.298Z,78.08
2018-01-08T12:28:46.123Z,77.04
2018-01-08T12:29:54.949Z,76.67
2018-01-08T12:31:03.778Z,76.57
2018-01-08T12:32:12.605Z,76.38
2018-01-08T12:33:21.436Z,76
2018-01-08T12:34:30.258Z,76.19
2018-01-08T12:35:39.088Z,74.49
2018-01-08T12:36:48.187Z,74.21
2018-01-08T12:37:57.014Z,73.83
2018-01-08T12:39:05.891Z,75.24
2018-01-08T12:40:14.715Z,74.21
2018-01-08T12:41:23.542Z,72.88
2018-01-08T12:42:32.372Z,71.84
2018-01-08T12:43:41.474Z,72.97
2018-01-08T12:44:50.350Z,72.22
2018-01-08T12:45:59.176Z,71.65
2018-01-08T12:47:08.273Z,72.22
2018-01-08T12:48:17.104Z,72.41
2018-01-08T12:49:25.930Z,71.93
2018-01-08T12:50:35.008Z,71.65
2018-01-08T12:51:43.834Z,71.84
2018-01-08T12:52:52.661Z,71.93
2018-01-08T12:54:01.486Z,72.03
2018-01-08T12:55:10.595Z,71.84
2018-01-08T12:56:19.418Z,71.93
2018-01-08T12:57:28.244Z,70.51
2018-01-08T12:58:37.069Z,69.66
2018-01-08T12:59:45.894Z,69.19
2018-01-08T13:00:54.723Z,69.66
2018-01-08T13:02:03.650Z,68.9
2018-01-08T13:03:12.475Z,68.9
2018-01-08T13:04:21.301Z,68.43
2018-01-08T13:05:30.128Z,69.38
2018-01-08T13:06:38.954Z,69.57
2018-01-08T13:07:47.781Z,69.57
2018-01-08T13:08:56.610Z,69.47
2018-01-08T13:10:05.439Z,69
2018-01-08T13:11:14.542Z,67.11
2018-01-08T13:12:23.369Z,67.01
2018-01-08T13:13:32.348Z,67.86
2018-01-08T13:14:41.184Z,67.3
2018-01-08T13:15:50.019Z,66.16
2018-01-08T13:16:59.117Z,66.44
2018-01-08T13:18:07.944Z,66.53
2018-01-08T13:19:16.874Z,66.35
2018-01-08T13:20:25.706Z,66.16
2018-01-08T13:21:34.566Z,65.31
2018-01-08T13:22:43.956Z,64.93
2018-01-08T13:23:52.883Z,64.26
2018-01-08T13:25:01.710Z,63.42
2018-01-08T13:26:10.538Z,63.51
2018-01-08T13:27:19.691Z,63.42
2018-01-08T13:28:28.812Z,63.42
2018-01-08T13:29:38.223Z,64.07
2018-01-08T13:30:47.051Z,64.36
2018-01-08T13:31:55.878Z,63.7
2018-01-08T13:33:04.981Z,63.6
2018-01-08T13:34:14.047Z,63.13
2018-01-08T13:35:23.151Z,63.13
2018-01-08T13:36:32.129Z,63.6
2018-01-08T13:37:40.963Z,63.64
2018-01-08T13:38:49.797Z,65.12
2018-01-08T13:39:58.904Z,63.16
2018-01-08T13:41:07.725Z,62.12
2018-01-08T13:42:16.555Z,61.8
2018-01-08T13:43:25.395Z,61.61
2018-01-08T13:44:34.229Z,60.77
2018-01-08T13:45:43.325Z,60.8
2018-01-08T13:46:52.712Z,61.08
2018-01-08T13:48:01.582Z,61.46
2018-01-08T13:49:10.752Z,60.96
2018-01-08T13:50:19.974Z,60.89
2018-01-08T13:51:28.899Z,61.65
2018-01-08T13:52:38.234Z,60.8
2018-01-08T13:53:47.601Z,60.41
2018-01-08T13:54:56.535Z,60.61
2018-01-08T13:56:05.587Z,60.8
2018-01-08T13:57:14.413Z,61.08
2018-01-08T13:58:23.291Z,60.8
2018-01-08T13:59:32.484Z,60.89
2018-01-08T14:00:41.372Z,60.32
2018-01-08T14:01:50.199Z,59.84
2018-01-08T14:02:59.025Z,59.28
2018-01-08T14:04:07.856Z,58.24
2018-01-08T14:05:17.033Z,58.24
2018-01-08T14:06:25.863Z,59.66
2018-01-08T14:07:34.691Z,60.13
2018-01-08T14:08:43.517Z,60.51
2018-01-08T14:09:52.620Z,60.22
2018-01-08T14:11:01.451Z,59.38
2018-01-08T14:12:10.277Z,58.9
2018-01-08T14:13:19.105Z,58.81
2018-01-08T14:14:27.934Z,58.71
2018-01-08T14:15:36.764Z,58.24
2018-01-08T14:16:45.894Z,58.71
2018-01-08T14:17:54.724Z,59.38
2018-01-08T14:19:03.554Z,58.36
2018-01-08T14:20:12.668Z,58.36
2018-01-08T14:21:21.498Z,57.98
2018-01-08T14:22:30.380Z,57.89
2018-01-08T14:23:39.213Z,57.89
2018-01-08T14:24:48.315Z,56.66
2018-01-08T14:25:57.148Z,56.09
2018-01-08T14:27:06.255Z,56.09
2018-01-08T14:28:15.460Z,56.37
2018-01-08T14:29:24.294Z,55.52
2018-01-08T14:30:33.397Z,55.17
2018-01-08T14:31:42.236Z,54.32
2018-01-08T14:32:51.061Z,54.88
2018-01-08T14:34:00.164Z,55.55
2018-01-08T14:35:08.997Z,54.69
2018-01-08T14:36:17.827Z,53.46
2018-01-08T14:37:26.660Z,53.72
2018-01-08T14:38:35.493Z,54.38
2018-01-08T14:39:44.481Z,54.19
2018-01-08T14:40:53.314Z,54.67
2018-01-08T14:42:02.157Z,55.05
2018-01-08T14:43:11.268Z,55.33
2018-01-08T14:44:20.100Z,55.8
2018-01-08T14:45:29.309Z,56.37
2018-01-08T14:46:38.134Z,56.66
2018-01-08T14:47:47.244Z,57.23